West View, Pennsylvania
Current Conditions -  °F | °C
As of 12:51 AM on Saturday 29 Nov 2014 (Local Time) from KPIT Reporting Station
Overcast Overcast  
Wind Chill: 22°   Ceiling: 7000
Heat Index: 28°   Visibility: 10mi
Dew Point: 19°   Wind: 6mph
Humidity: 69%   Direction: 160°SSE
Pressure: 30.16"   Gusts: NA
Location:  40.5198°N, 80.0388°W
Report Text: KPIT 290551Z 16005KT 10SM OVC070 M02/M07 A3016 RMK AO2 SLP235 T10221072 11022 21039 56009
Loading
Personal Weather Stations






























Interactive Weather Map New forecast layout! Learn more

10-Day Weather Forecast

Advertisements
Track Severe Weather on mobile